Time;durP1;ratioP1;P1;durP2;ratioP2;P2;SDS_P1;SDS_P2;PMS_P1;PMS_P2;Temp;Humidity;BMP_temperature;BMP_pressure;BME280_temperature;BME280_humidity;BME280_pressure;Samples;Min_cycle;Max_cycle;Signal;HPM_P1;HPM_P2
2021/07/19 00:00:28;;;;;;;14.82;5.82;;;;;;;;;;4204179;34;20176;-69
2021/07/19 00:02:54;;;;;;;7.30;5.18;;;;;;;;;;4203648;34;20213;-69
2021/07/19 00:05:24;;;;;;;8.98;5.28;;;;;;;;;;4204290;34;20185;-70
2021/07/19 00:07:50;;;;;;;10.23;5.40;;;;;;;;;;4202975;34;20137;-69
2021/07/19 00:10:18;;;;;;;8.93;5.78;;;;;;;;;;4203080;34;20137;-69
2021/07/19 00:12:44;;;;;;;7.10;5.45;;;;;;;;;;4191429;34;20090;-71
2021/07/19 00:15:12;;;;;;;9.25;4.97;;;;;;;;;;4204150;34;20237;-69
2021/07/19 00:17:39;;;;;;;11.43;6.50;;;;;;;;;;4204164;34;20197;-70
2021/07/19 00:20:06;;;;;;;7.50;5.60;;;;;;;;;;4191345;34;20213;-69
2021/07/19 00:22:32;;;;;;;6.95;5.25;;;;;;;;;;4204035;34;20094;-69
2021/07/19 00:24:58;;;;;;;8.20;5.93;;;;;;;;;;4191330;34;20137;-70
2021/07/19 00:27:23;;;;;;;8.13;5.57;;;;;;;;;;4204281;34;20267;-71
2021/07/19 00:29:49;;;;;;;10.25;5.43;;;;;;;;;;4191100;34;20156;-70
2021/07/19 00:32:15;;;;;;;6.43;5.03;;;;;;;;;;4204103;34;20529;-70
2021/07/19 00:34:41;;;;;;;9.18;5.12;;;;;;;;;;4204025;34;20625;-70
2021/07/19 00:37:07;;;;;;;8.10;5.70;;;;;;;;;;4204152;34;20451;-70
2021/07/19 00:39:33;;;;;;;7.97;6.20;;;;;;;;;;4191180;34;20132;-70
2021/07/19 00:41:59;;;;;;;11.05;5.68;;;;;;;;;;4204215;34;20129;-70
2021/07/19 00:44:25;;;;;;;8.60;4.97;;;;;;;;;;4191316;34;20133;-70
2021/07/19 00:46:51;;;;;;;10.50;5.78;;;;;;;;;;4179965;34;20109;-70
2021/07/19 00:49:17;;;;;;;6.85;5.12;;;;;;;;;;4179697;34;20292;-70
2021/07/19 00:51:43;;;;;;;6.62;5.18;;;;;;;;;;4191102;34;20130;-70
2021/07/19 00:54:09;;;;;;;8.60;5.60;;;;;;;;;;4203737;34;20129;-70
2021/07/19 00:56:35;;;;;;;10.05;6.62;;;;;;;;;;4190729;34;20133;-70
2021/07/19 00:59:01;;;;;;;7.35;5.12;;;;;;;;;;4179809;34;20117;-70
2021/07/19 01:01:27;;;;;;;11.57;6.07;;;;;;;;;;4179440;34;20212;-70
2021/07/19 01:03:54;;;;;;;8.93;6.35;;;;;;;;;;4179498;34;20134;-70
2021/07/19 01:06:20;;;;;;;6.72;5.12;;;;;;;;;;4190979;34;20181;-71
2021/07/19 01:08:46;;;;;;;6.30;5.35;;;;;;;;;;4190747;34;20537;-70
2021/07/19 01:11:13;;;;;;;8.80;5.97;;;;;;;;;;4190737;34;20463;-71
2021/07/19 01:13:39;;;;;;;10.23;5.70;;;;;;;;;;4204162;34;20498;-69
2021/07/19 01:16:05;;;;;;;8.57;5.70;;;;;;;;;;4193299;34;20114;-69
2021/07/19 01:18:31;;;;;;;8.07;5.50;;;;;;;;;;4205901;34;20121;-69
2021/07/19 01:20:59;;;;;;;12.75;5.37;;;;;;;;;;4204383;34;20121;-69
2021/07/19 01:24:03;;;;;;;12.45;5.57;;;;;;;;;;4205754;34;20234;-69
2021/07/19 01:26:56;;;;;;;8.68;6.12;;;;;;;;;;4205569;34;20202;-70
2021/07/19 01:29:22;;;;;;;13.32;5.85;;;;;;;;;;4204487;34;20129;-70
2021/07/19 01:31:48;;;;;;;8.02;5.87;;;;;;;;;;4193098;34;20102;-70
2021/07/19 01:34:24;;;;;;;11.68;5.43;;;;;;;;;;4204127;34;20213;-69
2021/07/19 01:36:53;;;;;;;7.20;5.10;;;;;;;;;;4204288;34;20128;-69
2021/07/19 01:39:19;;;;;;;8.95;5.53;;;;;;;;;;4204383;34;20098;-69
2021/07/19 01:41:44;;;;;;;7.32;5.40;;;;;;;;;;4192559;34;20199;-70
2021/07/19 01:44:10;;;;;;;9.15;5.78;;;;;;;;;;4192719;34;20126;-70
2021/07/19 01:46:36;;;;;;;8.93;5.62;;;;;;;;;;4192910;34;20110;-70
2021/07/19 01:49:03;;;;;;;8.85;5.18;;;;;;;;;;4181301;34;20132;-70
2021/07/19 01:51:29;;;;;;;6.90;5.35;;;;;;;;;;4205384;34;20180;-70
2021/07/19 01:53:55;;;;;;;12.98;5.40;;;;;;;;;;4192367;34;20121;-70
2021/07/19 01:56:21;;;;;;;13.27;6.07;;;;;;;;;;4192598;34;20560;-70
2021/07/19 01:58:47;;;;;;;12.43;5.07;;;;;;;;;;4204134;34;20248;-69
2021/07/19 02:01:13;;;;;;;6.87;5.62;;;;;;;;;;4203927;34;20287;-70
2021/07/19 02:03:39;;;;;;;7.85;5.53;;;;;;;;;;4205323;34;20204;-69
2021/07/19 02:06:07;;;;;;;7.35;5.70;;;;;;;;;;4203986;34;20125;-69
2021/07/19 02:08:36;;;;;;;8.05;4.93;;;;;;;;;;4203940;34;20094;-69
2021/07/19 02:11:02;;;;;;;10.85;6.12;;;;;;;;;;4192500;34;20093;-70
2021/07/19 02:13:31;;;;;;;7.05;5.78;;;;;;;;;;4192618;34;20173;-70
2021/07/19 02:15:58;;;;;;;8.63;6.32;;;;;;;;;;4203621;34;20161;-68
2021/07/19 02:18:24;;;;;;;10.00;5.68;;;;;;;;;;4205445;34;20438;-68
2021/07/19 02:20:55;;;;;;;9.32;5.95;;;;;;;;;;4192539;34;20105;-68
2021/07/19 02:23:21;;;;;;;13.80;6.93;;;;;;;;;;4192559;34;20102;-68
2021/07/19 02:25:49;;;;;;;9.85;6.47;;;;;;;;;;4204733;34;20118;-68
2021/07/19 02:28:15;;;;;;;12.13;6.70;;;;;;;;;;4205084;34;20098;-68
2021/07/19 02:30:41;;;;;;;10.15;6.28;;;;;;;;;;4204995;34;20120;-68
2021/07/19 02:33:08;;;;;;;7.80;6.50;;;;;;;;;;4192424;34;20469;-68
2021/07/19 02:35:33;;;;;;;8.10;5.93;;;;;;;;;;4205008;34;20105;-68
2021/07/19 02:38:02;;;;;;;11.27;5.22;;;;;;;;;;4192433;34;20147;-69
2021/07/19 02:40:28;;;;;;;14.23;6.37;;;;;;;;;;4204900;34;20534;-68
2021/07/19 02:42:59;;;;;;;11.80;5.90;;;;;;;;;;4192480;34;20241;-67
2021/07/19 02:45:26;;;;;;;14.45;5.32;;;;;;;;;;4192167;34;20244;-66
2021/07/19 02:47:52;;;;;;;11.25;5.75;;;;;;;;;;4204742;34;20129;-68
2021/07/19 02:50:19;;;;;;;6.12;4.53;;;;;;;;;;4180564;34;20167;-67
2021/07/19 02:52:45;;;;;;;6.70;4.93;;;;;;;;;;4204656;34;20098;-67
2021/07/19 02:55:12;;;;;;;9.88;5.15;;;;;;;;;;4192118;34;20126;-66
2021/07/19 02:57:38;;;;;;;7.80;5.47;;;;;;;;;;4204650;34;20313;-67
2021/07/19 03:00:09;;;;;;;20.67;6.65;;;;;;;;;;4204605;34;20519;-77
2021/07/19 03:02:38;;;;;;;14.65;5.82;;;;;;;;;;4180631;34;20209;-68
2021/07/19 03:05:04;;;;;;;7.55;4.75;;;;;;;;;;4181006;34;20094;-68
2021/07/19 03:07:30;;;;;;;7.20;5.28;;;;;;;;;;4190667;34;20552;-68
2021/07/19 03:09:58;;;;;;;6.80;4.93;;;;;;;;;;4180487;34;20298;-67
2021/07/19 03:12:24;;;;;;;8.68;5.20;;;;;;;;;;4204702;34;20461;-68
2021/07/19 03:14:50;;;;;;;13.85;5.47;;;;;;;;;;4191758;34;20189;-67
2021/07/19 03:17:19;;;;;;;8.00;5.10;;;;;;;;;;4198980;34;20284;-67
2021/07/19 03:19:46;;;;;;;10.25;5.45;;;;;;;;;;4204993;34;20523;-68
2021/07/19 03:22:12;;;;;;;9.02;4.97;;;;;;;;;;4191770;34;20277;-67
2021/07/19 03:24:38;;;;;;;7.45;4.78;;;;;;;;;;4191980;34;20145;-67
2021/07/19 03:27:04;;;;;;;12.40;5.37;;;;;;;;;;4203099;34;20136;-67
2021/07/19 03:29:30;;;;;;;7.25;5.65;;;;;;;;;;4203422;34;20126;-68
2021/07/19 03:31:55;;;;;;;9.95;5.28;;;;;;;;;;4203052;34;20304;-67
2021/07/19 03:34:21;;;;;;;12.43;5.12;;;;;;;;;;4203031;34;20126;-68
2021/07/19 03:36:49;;;;;;;6.22;4.95;;;;;;;;;;4202309;34;20120;-68
2021/07/19 03:39:14;;;;;;;6.50;5.43;;;;;;;;;;4191713;34;20110;-67
2021/07/19 03:41:40;;;;;;;8.35;5.95;;;;;;;;;;4203085;34;20218;-68
2021/07/19 03:44:06;;;;;;;8.52;5.12;;;;;;;;;;4203145;34;20322;-67
2021/07/19 03:46:32;;;;;;;5.70;4.45;;;;;;;;;;4191587;34;20105;-67
2021/07/19 03:48:58;;;;;;;12.07;4.68;;;;;;;;;;4202919;34;20134;-67
2021/07/19 03:51:27;;;;;;;8.00;5.82;;;;;;;;;;4203109;34;20102;-67
2021/07/19 03:53:53;;;;;;;6.95;5.32;;;;;;;;;;4204342;34;20370;-67
2021/07/19 03:56:19;;;;;;;8.70;4.90;;;;;;;;;;4202830;34;20552;-67
2021/07/19 03:58:45;;;;;;;6.82;5.40;;;;;;;;;;4191562;34;20619;-67
2021/07/19 04:01:10;;;;;;;7.30;5.18;;;;;;;;;;4203007;34;20209;-67
2021/07/19 04:03:52;;;;;;;8.40;5.62;;;;;;;;;;4202799;34;20240;-67
2021/07/19 04:06:18;;;;;;;9.95;5.25;;;;;;;;;;4203034;34;20105;-67
2021/07/19 04:08:44;;;;;;;14.52;5.37;;;;;;;;;;4191362;34;20137;-66
2021/07/19 04:11:13;;;;;;;8.52;5.12;;;;;;;;;;4202830;34;20667;-68
2021/07/19 04:13:39;;;;;;;8.25;6.25;;;;;;;;;;4202817;34;20149;-67
2021/07/19 04:16:06;;;;;;;8.07;5.30;;;;;;;;;;4191059;34;20125;-67
2021/07/19 04:18:32;;;;;;;9.85;5.75;;;;;;;;;;4203148;34;20096;-67
2021/07/19 04:20:58;;;;;;;14.55;5.75;;;;;;;;;;4202969;34;20098;-67
2021/07/19 04:23:24;;;;;;;14.38;5.97;;;;;;;;;;4202736;34;20148;-67
2021/07/19 04:25:50;;;;;;;8.38;6.25;;;;;;;;;;4202790;34;20109;-67
2021/07/19 04:28:20;;;;;;;10.10;5.97;;;;;;;;;;4202647;34;20126;-68
2021/07/19 04:30:46;;;;;;;13.27;6.22;;;;;;;;;;4204007;34;20514;-68
2021/07/19 04:33:19;;;;;;;10.05;6.22;;;;;;;;;;4202542;34;20485;-67
2021/07/19 04:35:46;;;;;;;14.27;6.20;;;;;;;;;;4203888;34;20101;-67
2021/07/19 04:38:13;;;;;;;11.35;6.00;;;;;;;;;;4203890;34;20462;-67
2021/07/19 04:40:39;;;;;;;9.73;6.15;;;;;;;;;;4202426;34;20106;-67
2021/07/19 04:43:05;;;;;;;9.60;6.55;;;;;;;;;;4202500;34;20136;-67
2021/07/19 04:45:31;;;;;;;12.02;6.37;;;;;;;;;;4203747;34;20121;-67
2021/07/19 04:47:57;;;;;;;10.60;6.25;;;;;;;;;;4203924;34;20125;-67
2021/07/19 04:50:23;;;;;;;10.75;6.82;;;;;;;;;;4206161;34;20138;-68
2021/07/19 04:52:49;;;;;;;10.88;6.57;;;;;;;;;;4205973;34;20481;-67
2021/07/19 04:55:20;;;;;;;13.65;6.22;;;;;;;;;;4192989;34;20216;-67
2021/07/19 04:57:47;;;;;;;11.07;6.50;;;;;;;;;;4192943;34;20122;-67
2021/07/19 05:00:13;;;;;;;10.65;5.78;;;;;;;;;;4204451;34;20122;-67
2021/07/19 05:02:39;;;;;;;7.60;5.22;;;;;;;;;;4204849;34;20133;-67
2021/07/19 05:05:06;;;;;;;11.02;6.18;;;;;;;;;;4205846;34;20477;-67
2021/07/19 05:07:32;;;;;;;9.05;6.03;;;;;;;;;;4204345;34;20106;-67
2021/07/19 05:10:00;;;;;;;8.68;6.18;;;;;;;;;;4204401;34;20536;-67
2021/07/19 05:12:26;;;;;;;11.07;6.80;;;;;;;;;;4192760;34;20132;-67
2021/07/19 05:14:52;;;;;;;8.35;5.82;;;;;;;;;;4204298;34;20106;-67
2021/07/19 05:17:18;;;;;;;10.82;5.93;;;;;;;;;;4205641;34;20237;-67
2021/07/19 05:19:44;;;;;;;10.30;7.30;;;;;;;;;;4192767;34;20148;-67
2021/07/19 05:22:16;;;;;;;11.35;7.07;;;;;;;;;;4205692;34;20141;-67
2021/07/19 05:24:43;;;;;;;12.02;6.30;;;;;;;;;;4192707;34;20093;-67
2021/07/19 05:27:10;;;;;;;13.10;6.53;;;;;;;;;;4205438;34;20132;-67
2021/07/19 05:29:37;;;;;;;13.50;6.80;;;;;;;;;;4205522;34;20254;-67
2021/07/19 05:32:04;;;;;;;13.10;6.43;;;;;;;;;;4192663;34;20510;-67
2021/07/19 05:34:30;;;;;;;10.70;6.90;;;;;;;;;;4205405;34;20129;-67
2021/07/19 05:36:56;;;;;;;7.65;6.68;;;;;;;;;;4192613;34;20202;-67
2021/07/19 05:39:22;;;;;;;14.90;6.78;;;;;;;;;;4181351;34;20129;-67
2021/07/19 05:41:48;;;;;;;9.38;6.40;;;;;;;;;;4205409;34;20114;-67
2021/07/19 05:44:14;;;;;;;9.13;6.60;;;;;;;;;;4205415;34;20144;-67
2021/07/19 05:46:40;;;;;;;16.23;7.50;;;;;;;;;;4205550;34;20125;-67
2021/07/19 05:49:06;;;;;;;10.82;6.40;;;;;;;;;;4205513;34;20440;-67
2021/07/19 05:51:32;;;;;;;13.07;8.50;;;;;;;;;;4205046;34;20118;-67
2021/07/19 05:54:00;;;;;;;12.43;7.15;;;;;;;;;;4181317;34;20443;-68
2021/07/19 05:56:26;;;;;;;11.30;7.40;;;;;;;;;;4192862;34;20096;-68
2021/07/19 05:58:52;;;;;;;19.08;7.15;;;;;;;;;;4205167;34;20148;-67
2021/07/19 06:01:18;;;;;;;15.00;8.48;;;;;;;;;;4204565;34;20112;-67
2021/07/19 06:03:43;;;;;;;8.65;5.40;;;;;;;;;;4192425;34;20117;-67
2021/07/19 06:06:09;;;;;;;13.88;7.53;;;;;;;;;;4205395;34;20217;-67
2021/07/19 06:08:35;;;;;;;14.27;7.50;;;;;;;;;;4205196;34;20137;-67
2021/07/19 06:11:01;;;;;;;18.70;7.75;;;;;;;;;;4205471;34;20116;-67
2021/07/19 06:13:27;;;;;;;15.02;8.73;;;;;;;;;;4192455;34;20129;-67
2021/07/19 06:15:53;;;;;;;15.27;8.25;;;;;;;;;;4204988;34;20577;-67
2021/07/19 06:18:19;;;;;;;9.43;7.15;;;;;;;;;;4205118;34;20121;-67
2021/07/19 06:20:45;;;;;;;14.73;7.47;;;;;;;;;;4204990;34;20130;-67
2021/07/19 06:23:11;;;;;;;17.30;8.05;;;;;;;;;;4192306;34;20126;-67
2021/07/19 06:25:39;;;;;;;12.02;6.93;;;;;;;;;;4204789;34;20625;-67
2021/07/19 06:28:05;;;;;;;13.62;7.15;;;;;;;;;;4192227;34;20140;-67
2021/07/19 06:30:31;;;;;;;11.82;7.87;;;;;;;;;;4205136;34;20126;-67
2021/07/19 06:32:57;;;;;;;13.07;7.68;;;;;;;;;;4204948;34;20120;-67
2021/07/19 06:35:24;;;;;;;8.43;5.82;;;;;;;;;;4205033;34;20120;-67
2021/07/19 06:37:50;;;;;;;10.73;7.72;;;;;;;;;;4192167;34;20206;-67
2021/07/19 06:40:16;;;;;;;15.77;8.55;;;;;;;;;;4204904;34;20103;-67
2021/07/19 06:42:42;;;;;;;15.32;8.20;;;;;;;;;;4205050;34;20118;-67
2021/07/19 06:45:09;;;;;;;11.27;7.90;;;;;;;;;;4192079;34;20141;-67
2021/07/19 06:47:35;;;;;;;14.40;8.02;;;;;;;;;;4192025;34;20113;-67
2021/07/19 06:50:01;;;;;;;18.98;8.45;;;;;;;;;;4191969;34;20352;-67
2021/07/19 06:52:27;;;;;;;13.30;8.60;;;;;;;;;;4204802;34;20120;-67
2021/07/19 06:54:53;;;;;;;12.05;7.75;;;;;;;;;;4204883;34;20484;-68
2021/07/19 06:57:19;;;;;;;15.45;9.07;;;;;;;;;;4204741;34;20466;-68
2021/07/19 06:59:45;;;;;;;12.93;8.88;;;;;;;;;;4205085;34;20153;-68
2021/07/19 07:02:11;;;;;;;15.48;8.70;;;;;;;;;;4204990;34;20123;-68
2021/07/19 07:04:36;;;;;;;14.00;8.77;;;;;;;;;;4180476;34;20325;-68
2021/07/19 07:07:03;;;;;;;10.20;4.53;;;;;;;;;;4191888;34;20486;-68
2021/07/19 07:09:29;;;;;;;11.27;8.15;;;;;;;;;;4204884;34;20114;-68
2021/07/19 07:11:55;;;;;;;12.20;8.15;;;;;;;;;;4204539;34;20133;-68
2021/07/19 07:14:21;;;;;;;12.63;8.55;;;;;;;;;;4204896;34;20129;-68
2021/07/19 07:16:46;;;;;;;21.67;8.65;;;;;;;;;;4204670;34;20206;-68
2021/07/19 07:19:12;;;;;;;29.10;8.93;;;;;;;;;;4204931;34;20443;-68
2021/07/19 07:21:39;;;;;;;15.85;8.77;;;;;;;;;;4191778;34;20124;-68
2021/07/19 07:24:05;;;;;;;13.70;8.38;;;;;;;;;;4204750;34;20090;-66
2021/07/19 07:26:31;;;;;;;7.53;5.65;;;;;;;;;;4204587;34;20533;-67
2021/07/19 07:28:57;;;;;;;11.35;7.65;;;;;;;;;;4204889;34;20131;-67
2021/07/19 07:31:27;;;;;;;7.03;6.07;;;;;;;;;;4180514;34;20537;-67
2021/07/19 07:33:55;;;;;;;11.95;8.55;;;;;;;;;;4204545;34;20118;-67
2021/07/19 07:36:22;;;;;;;15.43;8.43;;;;;;;;;;4204582;34;20117;-68
2021/07/19 07:38:48;;;;;;;13.48;9.05;;;;;;;;;;4204763;34;20102;-68
2021/07/19 07:41:14;;;;;;;12.93;8.63;;;;;;;;;;4204472;34;20095;-68
2021/07/19 07:43:40;;;;;;;9.90;6.12;;;;;;;;;;4204447;34;20168;-67
2021/07/19 07:46:06;;;;;;;9.70;7.55;;;;;;;;;;4204662;34;20116;-67
2021/07/19 07:48:32;;;;;;;10.40;7.90;;;;;;;;;;4204693;34;20241;-67
2021/07/19 07:50:58;;;;;;;11.52;7.95;;;;;;;;;;4191863;34;20116;-68
2021/07/19 07:53:24;;;;;;;9.02;7.45;;;;;;;;;;4191641;34;20451;-67
2021/07/19 07:55:50;;;;;;;10.70;7.97;;;;;;;;;;4204274;34;20126;-66
2021/07/19 07:58:16;;;;;;;13.23;8.32;;;;;;;;;;4204333;34;20548;-66
2021/07/19 08:00:42;;;;;;;10.45;7.85;;;;;;;;;;4204428;34;20540;-66
2021/07/19 08:03:08;;;;;;;11.38;8.50;;;;;;;;;;4204278;34;20122;-67
2021/07/19 08:05:34;;;;;;;13.02;8.15;;;;;;;;;;4204220;34;20106;-67
2021/07/19 08:08:00;;;;;;;9.23;7.57;;;;;;;;;;4191482;34;20126;-67
2021/07/19 08:10:26;;;;;;;18.37;7.37;;;;;;;;;;4204189;34;20617;-67
2021/07/19 08:12:51;;;;;;;9.57;6.50;;;;;;;;;;4204164;34;20136;-67
2021/07/19 08:15:17;;;;;;;10.02;6.57;;;;;;;;;;4204223;34;20160;-67
2021/07/19 08:17:43;;;;;;;25.08;8.65;;;;;;;;;;4204048;34;20122;-67
2021/07/19 08:20:10;;;;;;;11.77;7.12;;;;;;;;;;4204070;34;20113;-67
2021/07/19 08:22:36;;;;;;;13.20;7.78;;;;;;;;;;4203844;34;20197;-67
2021/07/19 08:25:02;;;;;;;12.50;8.05;;;;;;;;;;4190860;34;20133;-67
2021/07/19 08:27:28;;;;;;;10.63;8.13;;;;;;;;;;4204000;34;20134;-67
2021/07/19 08:29:54;;;;;;;9.93;7.57;;;;;;;;;;4204097;34;20482;-67
2021/07/19 08:32:20;;;;;;;9.77;6.95;;;;;;;;;;4204359;34;20140;-67
2021/07/19 08:34:46;;;;;;;8.85;7.40;;;;;;;;;;4203931;34;20199;-67
2021/07/19 08:37:13;;;;;;;14.45;8.73;;;;;;;;;;4203887;34;20094;-67
2021/07/19 08:39:43;;;;;;;10.70;7.68;;;;;;;;;;4203916;34;20529;-67
2021/07/19 08:42:10;;;;;;;11.73;8.15;;;;;;;;;;4204316;34;20110;-67
2021/07/19 08:44:36;;;;;;;12.82;8.00;;;;;;;;;;4203838;34;20610;-67
2021/07/19 08:47:05;;;;;;;14.77;8.90;;;;;;;;;;4203895;34;20602;-67
2021/07/19 08:49:32;;;;;;;11.48;8.05;;;;;;;;;;4204065;34;20209;-67
2021/07/19 08:51:58;;;;;;;9.85;8.07;;;;;;;;;;4203904;34;20089;-67
2021/07/19 08:54:26;;;;;;;9.90;7.47;;;;;;;;;;4190931;34;20237;-67
2021/07/19 08:56:53;;;;;;;8.77;5.62;;;;;;;;;;4191195;34;20099;-67
2021/07/19 08:59:19;;;;;;;10.88;6.12;;;;;;;;;;4179756;34;20093;-67
2021/07/19 09:01:45;;;;;;;13.05;7.60;;;;;;;;;;4190762;34;20230;-67
2021/07/19 09:04:12;;;;;;;8.13;5.60;;;;;;;;;;4203690;34;20454;-68
2021/07/19 09:06:39;;;;;;;15.35;7.22;;;;;;;;;;4203677;34;20214;-67
2021/07/19 09:09:05;;;;;;;10.57;6.68;;;;;;;;;;4203633;34;20113;-67
2021/07/19 09:11:31;;;;;;;10.68;6.93;;;;;;;;;;4203650;34;20137;-67
2021/07/19 09:13:58;;;;;;;10.70;8.07;;;;;;;;;;4203581;34;20137;-67
2021/07/19 09:16:25;;;;;;;6.65;5.40;;;;;;;;;;4203115;34;20126;-67
2021/07/19 09:19:07;;;;;;;12.88;7.40;;;;;;;;;;4190904;34;20109;-67
2021/07/19 09:21:34;;;;;;;10.43;7.72;;;;;;;;;;4203611;34;20114;-67
2021/07/19 09:24:07;;;;;;;9.43;7.78;;;;;;;;;;4203528;34;20091;-67
2021/07/19 09:26:34;;;;;;;9.43;7.07;;;;;;;;;;4203679;34;20133;-67
2021/07/19 09:29:01;;;;;;;10.10;7.57;;;;;;;;;;4203463;34;20106;-67
2021/07/19 09:31:32;;;;;;;10.65;6.10;;;;;;;;;;4203390;34;20137;-67
2021/07/19 09:33:59;;;;;;;8.90;7.25;;;;;;;;;;4203293;34;20124;-67
2021/07/19 09:36:27;;;;;;;10.93;6.95;;;;;;;;;;4205687;34;20105;-67
2021/07/19 09:39:08;;;;;;;14.57;6.47;;;;;;;;;;4205453;34;20120;-67
2021/07/19 09:41:35;;;;;;;6.00;4.72;;;;;;;;;;4205516;34;20109;-67
2021/07/19 09:44:05;;;;;;;9.02;5.90;;;;;;;;;;4205453;34;20137;-67
2021/07/19 09:46:32;;;;;;;10.10;6.12;;;;;;;;;;4205517;34;20506;-67
2021/07/19 09:48:59;;;;;;;10.57;6.62;;;;;;;;;;4205441;34;20101;-67
2021/07/19 09:51:32;;;;;;;10.82;7.25;;;;;;;;;;4205389;34;20225;-67
2021/07/19 09:54:12;;;;;;;10.90;7.15;;;;;;;;;;4205387;34;20423;-67
2021/07/19 09:56:39;;;;;;;8.55;6.30;;;;;;;;;;4205451;34;20137;-67
2021/07/19 09:59:06;;;;;;;9.93;6.30;;;;;;;;;;4192752;34;20125;-67
2021/07/19 10:01:34;;;;;;;9.48;5.95;;;;;;;;;;4205597;34;20570;-67
2021/07/19 10:04:11;;;;;;;8.45;5.55;;;;;;;;;;4192470;34;20105;-67
2021/07/19 10:06:40;;;;;;;9.82;6.70;;;;;;;;;;4205321;34;20101;-67
2021/07/19 10:09:07;;;;;;;14.27;7.25;;;;;;;;;;4205420;34;20117;-67
2021/07/19 10:11:35;;;;;;;8.77;6.68;;;;;;;;;;4205323;34;20189;-67
2021/07/19 10:14:01;;;;;;;11.75;6.85;;;;;;;;;;4205265;34;20121;-67
2021/07/19 10:16:31;;;;;;;11.40;7.60;;;;;;;;;;4193236;34;20106;-67
2021/07/19 10:18:58;;;;;;;6.43;4.37;;;;;;;;;;4205339;34;20113;-67
2021/07/19 10:21:29;;;;;;;12.18;7.05;;;;;;;;;;4205090;34;20099;-67
2021/07/19 10:24:05;;;;;;;9.07;6.15;;;;;;;;;;4203925;34;20132;-67
2021/07/19 10:26:31;;;;;;;9.23;5.72;;;;;;;;;;4203880;34;20558;-67
2021/07/19 10:28:58;;;;;;;10.18;6.93;;;;;;;;;;4205304;34;20130;-67
2021/07/19 10:31:28;;;;;;;9.55;6.93;;;;;;;;;;4203506;34;20565;-67
2021/07/19 10:33:55;;;;;;;7.75;6.12;;;;;;;;;;4205266;34;20208;-67
2021/07/19 10:36:31;;;;;;;10.68;6.22;;;;;;;;;;4181223;34;20221;-67
2021/07/19 10:39:04;;;;;;;7.87;6.15;;;;;;;;;;4205073;34;20098;-67
2021/07/19 10:41:31;;;;;;;10.23;6.18;;;;;;;;;;4203607;34;20126;-67
2021/07/19 10:44:01;;;;;;;8.25;6.68;;;;;;;;;;4203710;34;20118;-67
2021/07/19 10:46:27;;;;;;;9.35;6.12;;;;;;;;;;4204508;34;20121;-67
2021/07/19 10:49:09;;;;;;;13.40;6.22;;;;;;;;;;4192088;34;20113;-67
2021/07/19 10:51:39;;;;;;;10.15;6.57;;;;;;;;;;4205049;34;20491;-67
2021/07/19 10:54:12;;;;;;;12.20;6.97;;;;;;;;;;4204832;34;20162;-67
2021/07/19 10:56:38;;;;;;;4.32;3.08;;;;;;;;;;4204865;34;20112;-67
2021/07/19 10:59:04;;;;;;;5.43;4.03;;;;;;;;;;4204786;34;20551;-67
2021/07/19 11:01:31;;;;;;;15.00;7.45;;;;;;;;;;4203473;34;20521;-67
2021/07/19 11:04:01;;;;;;;10.10;6.53;;;;;;;;;;4204958;34;20114;-67
2021/07/19 11:06:34;;;;;;;8.30;6.12;;;;;;;;;;4205045;34;20428;-67
2021/07/19 11:09:02;;;;;;;9.85;7.05;;;;;;;;;;4204792;34;20140;-67
2021/07/19 11:11:39;;;;;;;10.15;6.68;;;;;;;;;;4203574;34;20133;-67
2021/07/19 11:14:06;;;;;;;8.77;6.90;;;;;;;;;;4204929;34;20115;-67
2021/07/19 11:16:43;;;;;;;7.07;4.80;;;;;;;;;;4204491;34;20117;-68
2021/07/19 11:19:09;;;;;;;11.05;7.32;;;;;;;;;;4204634;34;20117;-67
2021/07/19 11:21:35;;;;;;;10.25;6.60;;;;;;;;;;4204536;34;20126;-67
2021/07/19 11:24:15;;;;;;;11.95;7.68;;;;;;;;;;4204654;34;20232;-68
2021/07/19 11:27:10;;;;;;;8.57;7.12;;;;;;;;;;4204637;34;20121;-68
2021/07/19 11:29:37;;;;;;;7.87;6.80;;;;;;;;;;4204117;34;20573;-68
2021/07/19 11:32:08;;;;;;;11.55;6.80;;;;;;;;;;4204684;34;20152;-68
2021/07/19 11:34:34;;;;;;;13.30;6.90;;;;;;;;;;4204464;34;20122;-68
2021/07/19 11:37:01;;;;;;;8.73;6.30;;;;;;;;;;4191922;34;20109;-68
2021/07/19 11:39:27;;;;;;;8.30;6.45;;;;;;;;;;4204558;34;20132;-68
2021/07/19 11:42:02;;;;;;;10.13;6.57;;;;;;;;;;4204354;34;20518;-68
2021/07/19 11:44:32;;;;;;;12.90;6.65;;;;;;;;;;4204452;34;20125;-68
2021/07/19 11:46:58;;;;;;;9.32;6.55;;;;;;;;;;4204754;34;20142;-68
2021/07/19 11:49:25;;;;;;;9.32;6.43;;;;;;;;;;4204490;34;20125;-68
2021/07/19 11:51:51;;;;;;;7.70;5.82;;;;;;;;;;4204405;34;20209;-68
2021/07/19 11:54:18;;;;;;;10.25;7.37;;;;;;;;;;4204350;34;20562;-68
2021/07/19 11:56:47;;;;;;;11.05;6.70;;;;;;;;;;4191544;34;20125;-68
2021/07/19 11:59:18;;;;;;;8.48;6.35;;;;;;;;;;4203505;34;20097;-68
2021/07/19 12:01:44;;;;;;;20.35;6.87;;;;;;;;;;4191592;34;20538;-68
2021/07/19 12:04:10;;;;;;;7.45;6.30;;;;;;;;;;4191465;34;20218;-67
2021/07/19 12:06:36;;;;;;;10.40;6.80;;;;;;;;;;4204531;34;20531;-67
2021/07/19 12:09:07;;;;;;;15.63;7.22;;;;;;;;;;4204505;34;20156;-67
2021/07/19 12:11:33;;;;;;;12.40;7.25;;;;;;;;;;4204182;34;20110;-67
2021/07/19 12:14:12;;;;;;;9.85;6.95;;;;;;;;;;4204279;34;20565;-67
2021/07/19 12:16:39;;;;;;;11.48;6.62;;;;;;;;;;4204166;34;20133;-67
2021/07/19 12:19:06;;;;;;;8.05;6.00;;;;;;;;;;4191607;34;20101;-67
2021/07/19 12:21:43;;;;;;;8.68;7.07;;;;;;;;;;4191203;34;20140;-67
2021/07/19 12:24:09;;;;;;;10.20;6.65;;;;;;;;;;4204229;34;20217;-67
2021/07/19 12:26:49;;;;;;;10.65;6.20;;;;;;;;;;4204352;34;20113;-66
2021/07/19 12:29:34;;;;;;;13.40;6.78;;;;;;;;;;4204111;34;20537;-66
2021/07/19 12:32:01;;;;;;;11.65;7.05;;;;;;;;;;4204370;34;20445;-67
2021/07/19 12:34:34;;;;;;;8.68;6.22;;;;;;;;;;4204061;34;20114;-67
2021/07/19 12:37:01;;;;;;;11.00;6.05;;;;;;;;;;4204135;34;20204;-67
2021/07/19 12:39:30;;;;;;;9.10;7.10;;;;;;;;;;4203989;34;20144;-68
2021/07/19 12:41:56;;;;;;;9.70;7.10;;;;;;;;;;4191095;34;20113;-68
2021/07/19 12:44:26;;;;;;;8.98;6.65;;;;;;;;;;4191129;34;20221;-68
2021/07/19 12:46:52;;;;;;;9.07;7.03;;;;;;;;;;4191104;34;20140;-68
2021/07/19 12:49:29;;;;;;;12.45;6.60;;;;;;;;;;4190953;34;20149;-68
2021/07/19 12:51:57;;;;;;;9.70;7.18;;;;;;;;;;4204181;34;20102;-68
2021/07/19 12:54:22;;;;;;;14.80;6.97;;;;;;;;;;4203746;34;20609;-68
2021/07/19 12:56:49;;;;;;;9.32;6.85;;;;;;;;;;4203705;34;20122;-68
2021/07/19 12:59:15;;;;;;;12.98;7.07;;;;;;;;;;4204100;34;20499;-68
2021/07/19 13:01:42;;;;;;;11.12;7.18;;;;;;;;;;4203947;34;20117;-68
2021/07/19 13:04:10;;;;;;;13.02;7.82;;;;;;;;;;4203900;34;20133;-68
2021/07/19 13:06:39;;;;;;;11.82;7.07;;;;;;;;;;4203538;34;20102;-68
2021/07/19 13:09:08;;;;;;;12.43;7.03;;;;;;;;;;4191271;34;20121;-68
2021/07/19 13:11:38;;;;;;;10.55;7.45;;;;;;;;;;4192811;34;20094;-68
2021/07/19 13:14:09;;;;;;;10.40;6.87;;;;;;;;;;4205869;34;20125;-68
2021/07/19 13:16:36;;;;;;;10.77;7.47;;;;;;;;;;4205508;34;20186;-68
2021/07/19 13:19:01;;;;;;;13.43;7.43;;;;;;;;;;4205700;34;20284;-68
2021/07/19 13:21:27;;;;;;;10.32;6.50;;;;;;;;;;4193158;34;20209;-68
2021/07/19 13:23:53;;;;;;;10.80;7.03;;;;;;;;;;4205633;34;20114;-68
2021/07/19 13:26:19;;;;;;;12.77;7.25;;;;;;;;;;4205562;34;20502;-68
2021/07/19 13:28:45;;;;;;;10.55;6.60;;;;;;;;;;4192956;34;20126;-68
2021/07/19 13:31:11;;;;;;;9.30;6.47;;;;;;;;;;4205533;34;20137;-68
2021/07/19 13:33:43;;;;;;;11.45;6.47;;;;;;;;;;4205743;34;20481;-67
2021/07/19 13:36:10;;;;;;;9.18;6.70;;;;;;;;;;4205434;34;20502;-66
2021/07/19 13:38:41;;;;;;;11.68;7.22;;;;;;;;;;4205342;34;20683;-66
2021/07/19 13:41:07;;;;;;;12.55;6.95;;;;;;;;;;4205396;34;20558;-66
2021/07/19 13:43:40;;;;;;;14.02;7.55;;;;;;;;;;4205596;34;20641;-66
2021/07/19 13:46:06;;;;;;;11.02;7.65;;;;;;;;;;4205378;34;20497;-66
2021/07/19 13:48:33;;;;;;;8.77;6.80;;;;;;;;;;4205273;34;20133;-66
2021/07/19 13:51:00;;;;;;;10.95;7.28;;;;;;;;;;4205465;34;20453;-66
2021/07/19 13:53:27;;;;;;;12.65;7.45;;;;;;;;;;4205282;34;20463;-66
2021/07/19 13:55:57;;;;;;;9.15;6.03;;;;;;;;;;4205377;34;20110;-67
2021/07/19 13:58:26;;;;;;;9.88;6.22;;;;;;;;;;4205198;34;20210;-66
2021/07/19 14:00:53;;;;;;;8.27;6.95;;;;;;;;;;4204788;34;20578;-66
2021/07/19 14:03:19;;;;;;;8.38;6.47;;;;;;;;;;4205008;34;20102;-68
2021/07/19 14:05:45;;;;;;;9.02;6.72;;;;;;;;;;4205164;34;20182;-68
2021/07/19 14:08:11;;;;;;;7.37;5.90;;;;;;;;;;4192321;34;20137;-67
2021/07/19 14:10:37;;;;;;;11.80;7.32;;;;;;;;;;4205235;34;20137;-67
2021/07/19 14:13:04;;;;;;;9.02;6.55;;;;;;;;;;4205216;34;20120;-67
2021/07/19 14:15:30;;;;;;;9.70;6.72;;;;;;;;;;4192293;34;20125;-67
2021/07/19 14:17:56;;;;;;;11.68;6.87;;;;;;;;;;4205280;34;20109;-67
2021/07/19 14:20:22;;;;;;;10.52;6.50;;;;;;;;;;4192313;34;20430;-68
2021/07/19 14:22:47;;;;;;;7.72;6.30;;;;;;;;;;4204491;34;20577;-68
2021/07/19 14:25:13;;;;;;;8.55;5.97;;;;;;;;;;4204791;34;20529;-68
2021/07/19 14:27:40;;;;;;;9.10;5.70;;;;;;;;;;4205009;34;20118;-68
2021/07/19 14:30:08;;;;;;;12.18;6.45;;;;;;;;;;4205134;34;20129;-68
2021/07/19 14:32:38;;;;;;;11.82;6.30;;;;;;;;;;4205121;34;20090;-67
2021/07/19 14:35:05;;;;;;;9.25;5.93;;;;;;;;;;4204912;34;20178;-68
2021/07/19 14:37:31;;;;;;;8.88;5.60;;;;;;;;;;4205186;34;20169;-67